Aérodrome :
LOGIN :

S'inscrire | Disclaimer

   EN    FR    IT 

 










Légende :    VFR   VFR Marginal   IFR   IFR Intensif   IFR Très Intensif
Visi : 
Plafond : 
>= 8 km
>= 3000ft
5 à 8 km
1000 à 3000 ft
1500m à 5 km
500 à 1000 ft
800 à 1500m
200 à 500 ft
< 800m
< 200 ft
Symboles :   Orages  Brouillard  Fortes neiges  Fortes précipitations  Vent > 20 kt
SIGMETs :   Divers  Orages  Givrage  Turbulence  Onde Orograph.  Cendres Volcan.






- Altitude de l'aérodrome : 135 ft
- Code IATA : EDI


EGPH - Edinburgh

DERNIER METAR :
  • 271220Z 18004KT 100V280 CAVOK 18/06 Q1037

METARs EXPIRÉS :
  • 271150Z 27004KT 200V360 9999 FEW042 17/05 Q1037
  • 271120Z 24004KT 190V290 CAVOK 16/06 Q1037
  • 271050Z VRB03KT CAVOK 16/06 Q1037
  • 271020Z VRB02KT 9999 FEW034 15/06 Q1038
  • 270950Z VRB03KT 9999 FEW033 15/06 Q1038

TAF TAF EGPH
Valide du 27 à 12h jusqu'au 28 à 12h UTC


271057Z 2712/2812 26009KT 9999 SCT030
TEMPO 2712/2720 06010KT
ATIS : +44 131 339 2823



MET'MAP, la Météo Aéronautique d'un coup d'oeil ! - Copyright ORBIFLY Décembre 2007 - Disclaimer

ORBIFLY MET'MAP TEAM :

Programmation & Développement : Alexandra Zaïnal
Sur une idée originale de : Baudouin d'Aumeries
Assistance à la programmation : Marc-Olivier Méhu
Soutien technique & logistique : Manuel Goepfert

Contact : metmap@orbifly.com




SOURCES & CREDITS :

   NOAA